DIRECCIÓN GENERAL DE AERONÁUTICA CIVIL
DIRECCIÓN METEOROLÓGICA DE CHILE
INFORMACIÓN METAR Y TAF

FIR SANTIAGO

Estación: SCSE
METAR SCSE 261100Z 12004KT CAVOK 08/06 Q1016=

TAF SCSE 261010Z 2612/2712 13004KT CAVOK TX16/2618Z TN09/2710Z TEMPO 2612/2614 30005KT BKN010 BECMG 2618/2620 28012KT BECMG 2700/2702 31005KT BECMG 2704/2706 12005KT SCT012 BECMG 2708/2710 VRB02KT BKN010=

Estación: SCER
METAR SCER 161100Z 00000KT 7000 OVC014 12/10 Q1015=

TAF SCER NIL=

Estación: SCRD
METAR SCRD 252200Z 18012KT CAVOK 13/09 Q1018=

TAF SCRD 261012Z 2612/2624 16005KT CAVOK TX16/2618Z TN09/2612Z BECMG 2614/2616 33006KT BECMG 2618/2620 20015KT=

Estación: SCVM
METAR SCVM 261100Z 00000KT CAVOK 09/07 Q1018=

TAF SCVM 261010Z 2612/2712 VRB02KT CAVOK TX16/2618Z TN08/2710Z BECMG 2614/2616 31006KT BECMG 2619/2621 24012KT BECMG 2700/2702 15005KT TEMPO 2706/2712 BKN010=

Estación: SCTB
METAR SCTB 261100Z 02002KT 3000 BR BKN006 07/06 Q1019=

TAF COR SCTB 261107Z 2612/2624 00000KT 3000 BR BKN008 TX16/2618Z TN08 /2612Z BECMG 2614/2616 5000 HZ SCT020 BECMG 2616/2618 22006KT 7000 NSC=

Estación: SCEL
SPECI SCEL 261113Z 21004KT 5000 0500NW R17L/P2000D R17R/0550V1500N BCFG FEW008 BKN250 06/04 Q1018 NOSIG=

TAF SCEL 261010Z 2612/2712 VRB02KT 5000 BR NSC TX15/2618Z TN03/2710Z TEMPO 2612/2614 0500 BCFG SCT002 BECMG 2614/2616 17005KT 7000 BECMG 2618/2620 19012KT CAVOK BECMG 2700/2702 15005KT BECMG 2704/2706 5000 HZ NSC TEMPO 2706/2712 VRB02KT 0500 BCFG SCT002=

Estación: SCSN
METAR SCSN 261100Z 18004KT 150V210 6000 NSC 10/08 Q1019=

TAF SCSN 261015Z 2612/2624 13005KT CAVOK TX15/2618Z TN10/2612Z TEMPO 2612/2614 29008KT 6000 BKN013 BECMG 2616/2618 24012KT=

Estación: SCRG
METAR SCRG 251900Z 24006KT 4000 HZ NSC 18/09 Q1016=

TAF SCRG 261015Z 2612/2624 18005KT 4000 BR NSC TX14/2618Z TN06/2612Z TEMPO 2612/2614 0500 BCFG SCT002 BECMG 2615/2617 19010KT 7000=

Estación: SCIC
METAR SCIC 261100Z AUTO 20006KT 170V230 9999 OVC019 09/06 Q1020=

TAF SCIC 261015Z 2612/2624 21006KT 9999 SCT020 BKN030 TX14/2618Z TN10/2612Z TEMPO 2612/2614 2000 BR BECMG 2616/2618 SCT035 BECMG 2618/2620 22012KT CAVOK=

Estación: SCCH
SPECI SCCH 261117Z AUTO 22004KT 1300 R/////// BR FEW003 03/03 Q1022=

TAF SCCH 261015Z 2612/2624 21005KT 4000 BR NSC TX13/2619Z TN04/2612Z TEMPO 2612/2614 0500 FG BKN002 BECMG 2616/2618 19012KT CAVOK=

Estación: SCIE
SPECI SCIE 261134Z 14002KT 9999 2000S VCFG NSC 04/04 Q1024=

TAF SCIE 261010Z 2612/2712 15005KT CAVOK TX14/2618Z TN02/2710Z TEMPO 2612/2614 2000 BR BECMG 2614/2616 18010KT BECMG 2618/2620 24015KT BECMG 2700/2702 20006KT TEMPO 2706/2712 17005KT 1500 BR NSC=

Estación: SCGE
METAR SCGE 252100Z 30007KT 7000 VCSH BKN018 OVC030 10/09 Q1018 RERA=

TAF SCGE 261015Z 2612/2624 18005KT 9999 SCT025 TX13/2619Z TN04/2612Z TEMPO 2612/2614 2000 BR NSC BECMG 2616/2618 19015KT CAVOK=


Volver